createdAt,value
2018-06-05T00:00:34.653Z,0
2018-06-05T00:01:43.293Z,0
2018-06-05T00:02:51.944Z,0
2018-06-05T00:04:00.592Z,0
2018-06-05T00:05:09.239Z,0
2018-06-05T00:06:17.887Z,0
2018-06-05T00:07:26.535Z,0
2018-06-05T00:08:35.446Z,0
2018-06-05T00:09:44.094Z,0
2018-06-05T00:10:53.023Z,0
2018-06-05T00:12:01.928Z,0
2018-06-05T00:13:10.838Z,0
2018-06-05T00:14:19.484Z,0
2018-06-05T00:15:28.132Z,0
2018-06-05T00:16:36.779Z,0
2018-06-05T00:17:45.423Z,0
2018-06-05T00:18:54.071Z,0
2018-06-05T00:20:02.717Z,0
2018-06-05T00:21:11.359Z,0
2018-06-05T00:22:20.008Z,0
2018-06-05T00:23:28.657Z,0
2018-06-05T00:24:37.566Z,0
2018-06-05T00:25:46.217Z,0
2018-06-05T00:26:55.126Z,0
2018-06-05T00:28:03.769Z,0
2018-06-05T00:29:12.416Z,0
2018-06-05T00:30:21.071Z,0
2018-06-05T00:31:29.712Z,0
2018-06-05T00:32:38.627Z,0
2018-06-05T00:33:47.801Z,0
2018-06-05T00:34:56.455Z,0
2018-06-05T00:36:05.100Z,0
2018-06-05T00:37:13.754Z,0
2018-06-05T00:38:22.400Z,0
2018-06-05T00:39:31.051Z,0
2018-06-05T00:40:39.696Z,0
2018-06-05T00:41:48.345Z,0
2018-06-05T00:42:56.993Z,0
2018-06-05T00:44:05.910Z,0
2018-06-05T00:45:14.813Z,0
2018-06-05T00:46:23.470Z,0
2018-06-05T00:47:32.108Z,0
2018-06-05T00:48:40.762Z,0
2018-06-05T00:49:49.402Z,0
2018-06-05T00:50:58.059Z,0
2018-06-05T00:52:06.701Z,0
2018-06-05T00:53:15.364Z,0
2018-06-05T00:54:24.524Z,0
2018-06-05T00:55:33.176Z,0
2018-06-05T00:56:41.822Z,0
2018-06-05T00:57:50.483Z,0
2018-06-05T00:58:59.393Z,0
2018-06-05T01:00:08.038Z,0
2018-06-05T01:01:16.682Z,0
2018-06-05T01:02:25.594Z,0
2018-06-05T01:03:34.250Z,0
2018-06-05T01:04:42.891Z,0
2018-06-05T01:05:51.544Z,0
2018-06-05T01:07:00.183Z,0
2018-06-05T01:08:09.103Z,0
2018-06-05T01:09:17.747Z,0
2018-06-05T01:10:26.663Z,0
2018-06-05T01:11:35.298Z,0
2018-06-05T01:12:44.216Z,0
2018-06-05T01:13:52.865Z,0
2018-06-05T01:15:01.516Z,0
2018-06-05T01:16:10.422Z,0
2018-06-05T01:17:19.331Z,0
2018-06-05T01:18:27.982Z,0
2018-06-05T01:19:36.631Z,0
2018-06-05T01:20:45.280Z,0
2018-06-05T01:21:53.919Z,0
2018-06-05T01:23:02.567Z,0
2018-06-05T01:24:11.210Z,0
2018-06-05T01:25:19.866Z,0
2018-06-05T01:26:28.502Z,0
2018-06-05T01:27:37.153Z,0
2018-06-05T01:28:45.796Z,0
2018-06-05T01:29:54.453Z,0
2018-06-05T01:31:03.093Z,0
2018-06-05T01:32:11.743Z,0
2018-06-05T01:33:20.386Z,0
2018-06-05T01:34:29.042Z,0
2018-06-05T01:35:37.686Z,0
2018-06-05T01:36:46.331Z,0
2018-06-05T01:37:54.980Z,0
2018-06-05T01:39:03.622Z,0
2018-06-05T01:40:12.543Z,0
2018-06-05T01:41:21.189Z,0
2018-06-05T01:42:29.840Z,0
2018-06-05T01:43:38.484Z,0
2018-06-05T01:44:47.137Z,0
2018-06-05T01:45:55.786Z,0
2018-06-05T01:47:04.436Z,0
2018-06-05T01:48:13.339Z,0
2018-06-05T01:49:21.992Z,0
2018-06-05T01:50:30.638Z,0
2018-06-05T01:51:39.287Z,0
2018-06-05T01:52:47.928Z,0
2018-06-05T01:53:56.580Z,0
2018-06-05T01:55:05.229Z,0
2018-06-05T01:56:13.878Z,0
2018-06-05T01:57:22.528Z,0
2018-06-05T01:58:31.171Z,0
2018-06-05T01:59:40.081Z,0
2018-06-05T02:00:48.988Z,0
2018-06-05T02:01:57.642Z,0
2018-06-05T02:03:06.286Z,0
2018-06-05T02:04:14.934Z,0
2018-06-05T02:05:23.582Z,0
2018-06-05T02:06:32.233Z,0
2018-06-05T02:07:40.877Z,0
2018-06-05T02:08:49.788Z,0
2018-06-05T02:09:58.433Z,0
2018-06-05T02:11:07.086Z,0
2018-06-05T02:12:15.731Z,0
2018-06-05T02:13:24.380Z,0
2018-06-05T02:14:33.029Z,0
2018-06-05T02:15:41.673Z,0
2018-06-05T02:16:50.324Z,0
2018-06-05T02:17:58.970Z,0
2018-06-05T02:19:07.617Z,0
2018-06-05T02:20:16.258Z,0
2018-06-05T02:21:24.910Z,0
2018-06-05T02:22:33.557Z,0
2018-06-05T02:23:42.209Z,0
2018-06-05T02:24:50.853Z,0
2018-06-05T02:25:59.505Z,0
2018-06-05T02:27:08.149Z,0
2018-06-05T02:28:16.796Z,0
2018-06-05T02:29:25.698Z,0
2018-06-05T02:30:34.350Z,0
2018-06-05T02:31:43.011Z,0
2018-06-05T02:32:52.171Z,0
2018-06-05T02:34:00.821Z,0
2018-06-05T02:35:09.464Z,0
2018-06-05T02:36:18.114Z,0
2018-06-05T02:37:26.768Z,0
2018-06-05T02:38:35.419Z,0
2018-06-05T02:39:44.062Z,0
2018-06-05T02:40:52.709Z,0
2018-06-05T02:42:01.618Z,0
2018-06-05T02:43:10.262Z,0
2018-06-05T02:44:19.452Z,0
2018-06-05T02:45:28.095Z,0
2018-06-05T02:46:37.018Z,0
2018-06-05T02:47:45.927Z,0
2018-06-05T02:48:54.576Z,0
2018-06-05T02:50:03.224Z,0
2018-06-05T02:51:11.874Z,0
2018-06-05T02:52:20.786Z,0
2018-06-05T02:53:29.694Z,0
2018-06-05T02:54:38.606Z,0
2018-06-05T02:55:47.254Z,0
2018-06-05T02:56:56.450Z,0
2018-06-05T02:58:05.356Z,0
2018-06-05T02:59:14.009Z,0
2018-06-05T03:00:22.916Z,0
2018-06-05T03:01:31.835Z,0
2018-06-05T03:02:40.971Z,0
2018-06-05T03:03:49.630Z,0
2018-06-05T03:04:58.274Z,0
2018-06-05T03:06:06.924Z,0
2018-06-05T03:07:15.838Z,0
2018-06-05T03:08:24.775Z,0
2018-06-05T03:09:33.981Z,0
2018-06-05T03:10:42.895Z,0
2018-06-05T03:11:51.548Z,0
2018-06-05T03:13:00.196Z,0
2018-06-05T03:14:08.844Z,0
2018-06-05T03:15:17.491Z,0
2018-06-05T03:16:26.695Z,0
2018-06-05T03:17:35.341Z,0
2018-06-05T03:18:43.993Z,0
2018-06-05T03:19:52.628Z,0
2018-06-05T03:21:01.281Z,0
2018-06-05T03:22:09.926Z,0
2018-06-05T03:23:18.574Z,0
2018-06-05T03:24:27.215Z,0
2018-06-05T03:25:35.861Z,0
2018-06-05T03:26:44.511Z,0
2018-06-05T03:27:53.161Z,0
2018-06-05T03:29:02.075Z,0
2018-06-05T03:30:10.721Z,0
2018-06-05T03:31:19.671Z,0
2018-06-05T03:32:28.560Z,0
2018-06-05T03:33:37.212Z,0
2018-06-05T03:34:45.855Z,0
2018-06-05T03:35:54.761Z,0
2018-06-05T03:37:03.408Z,0
2018-06-05T03:38:12.063Z,0
2018-06-05T03:39:20.699Z,0
2018-06-05T03:40:29.350Z,5
2018-06-05T03:41:37.994Z,5
2018-06-05T03:42:46.649Z,5
2018-06-05T03:43:55.558Z,5
2018-06-05T03:45:04.198Z,5
2018-06-05T03:46:13.109Z,5
2018-06-05T03:47:21.753Z,5
2018-06-05T03:48:30.408Z,5
2018-06-05T03:49:39.052Z,5
2018-06-05T03:50:47.703Z,5
2018-06-05T03:51:56.340Z,5
2018-06-05T03:53:04.996Z,5
2018-06-05T03:54:13.639Z,5
2018-06-05T03:55:22.295Z,5
2018-06-05T03:56:30.969Z,5
2018-06-05T03:57:39.588Z,5
2018-06-05T03:58:48.233Z,5
2018-06-05T03:59:57.145Z,10
2018-06-05T04:01:05.785Z,10
2018-06-05T04:02:14.692Z,10
2018-06-05T04:03:23.342Z,10
2018-06-05T04:04:31.992Z,10
2018-06-05T04:05:40.642Z,10
2018-06-05T04:06:49.281Z,10
2018-06-05T04:07:57.932Z,10
2018-06-05T04:09:06.574Z,10
2018-06-05T04:10:15.228Z,10
2018-06-05T04:11:23.866Z,10
2018-06-05T04:12:32.516Z,10
2018-06-05T04:13:41.158Z,10
2018-06-05T04:14:49.815Z,10
2018-06-05T04:15:58.452Z,10
2018-06-05T04:17:07.105Z,15
2018-06-05T04:18:15.765Z,15
2018-06-05T04:19:24.407Z,15
2018-06-05T04:20:33.055Z,15
2018-06-05T04:21:41.701Z,15
2018-06-05T04:22:50.345Z,15
2018-06-05T04:23:59.250Z,15
2018-06-05T04:25:07.905Z,20
2018-06-05T04:26:16.548Z,20
2018-06-05T04:27:25.198Z,20
2018-06-05T04:28:33.835Z,15
2018-06-05T04:29:42.759Z,15
2018-06-05T04:30:51.413Z,20
2018-06-05T04:32:00.328Z,20
2018-06-05T04:33:09.228Z,20
2018-06-05T04:34:17.886Z,20
2018-06-05T04:35:26.530Z,20
2018-06-05T04:36:35.454Z,20
2018-06-05T04:37:44.095Z,20
2018-06-05T04:38:52.743Z,25
2018-06-05T04:40:01.656Z,25
2018-06-05T04:41:10.305Z,25
2018-06-05T04:42:18.953Z,25
2018-06-05T04:43:27.868Z,25
2018-06-05T04:44:36.779Z,25
2018-06-05T04:45:45.427Z,25
2018-06-05T04:46:54.078Z,25
2018-06-05T04:48:02.722Z,30
2018-06-05T04:49:11.366Z,30
2018-06-05T04:50:20.012Z,30
2018-06-05T04:51:28.936Z,30
2018-06-05T04:52:37.840Z,30
2018-06-05T04:53:46.752Z,30
2018-06-05T04:54:55.396Z,35
2018-06-05T04:56:04.050Z,35
2018-06-05T04:57:12.694Z,35
2018-06-05T04:58:21.333Z,35
2018-06-05T04:59:29.977Z,35
2018-06-05T05:00:38.622Z,35
2018-06-05T05:01:47.272Z,35
2018-06-05T05:02:56.181Z,35
2018-06-05T05:04:04.827Z,35
2018-06-05T05:05:13.473Z,40
2018-06-05T05:06:22.131Z,40
2018-06-05T05:07:30.780Z,40
2018-06-05T05:08:39.430Z,40
2018-06-05T05:09:48.071Z,45
2018-06-05T05:10:56.722Z,45
2018-06-05T05:12:05.366Z,45
2018-06-05T05:13:14.015Z,45
2018-06-05T05:14:22.697Z,45
2018-06-05T05:15:31.308Z,45
2018-06-05T05:16:39.954Z,45
2018-06-05T05:17:48.602Z,45
2018-06-05T05:18:57.249Z,45
2018-06-05T05:20:06.162Z,40
2018-06-05T05:21:14.807Z,40
2018-06-05T05:22:23.715Z,40
2018-06-05T05:23:32.635Z,45
2018-06-05T05:24:41.277Z,45
2018-06-05T05:25:49.924Z,45
2018-06-05T05:26:58.570Z,45
2018-06-05T05:28:07.481Z,45
2018-06-05T05:29:16.124Z,45
2018-06-05T05:30:25.039Z,45
2018-06-05T05:31:33.690Z,45
2018-06-05T05:32:42.336Z,45
2018-06-05T05:33:50.982Z,45
2018-06-05T05:34:59.628Z,45
2018-06-05T05:36:08.269Z,45
2018-06-05T05:37:17.178Z,45
2018-06-05T05:38:25.833Z,45
2018-06-05T05:39:34.474Z,50
2018-06-05T05:40:43.125Z,50
2018-06-05T05:41:51.763Z,50
2018-06-05T05:43:00.423Z,50
2018-06-05T05:44:09.062Z,50
2018-06-05T05:45:17.713Z,55
2018-06-05T05:46:26.351Z,55
2018-06-05T05:47:35.007Z,55
2018-06-05T05:48:43.650Z,55
2018-06-05T05:49:52.299Z,55
2018-06-05T05:51:00.937Z,55
2018-06-05T05:52:09.588Z,55
2018-06-05T05:53:18.236Z,55
2018-06-05T05:54:26.888Z,60
2018-06-05T05:55:35.537Z,60
2018-06-05T05:56:44.175Z,60
2018-06-05T05:57:52.826Z,55
2018-06-05T05:59:01.466Z,55
2018-06-05T06:00:10.123Z,55
2018-06-05T06:01:18.760Z,55
2018-06-05T06:02:27.412Z,55
2018-06-05T06:03:36.053Z,60
2018-06-05T06:04:44.717Z,60
2018-06-05T06:05:53.356Z,60
2018-06-05T06:07:02.003Z,65
2018-06-05T06:08:10.645Z,65
2018-06-05T06:09:19.303Z,65
2018-06-05T06:10:27.950Z,65
2018-06-05T06:11:36.592Z,70
2018-06-05T06:12:45.239Z,70
2018-06-05T06:13:53.887Z,70
2018-06-05T06:15:02.805Z,70
2018-06-05T06:16:11.448Z,65
2018-06-05T06:17:20.101Z,65
2018-06-05T06:18:28.996Z,65
2018-06-05T06:19:37.650Z,65
2018-06-05T06:20:46.293Z,70
2018-06-05T06:21:54.951Z,70
2018-06-05T06:23:03.587Z,70
2018-06-05T06:24:12.241Z,70
2018-06-05T06:25:20.888Z,70
2018-06-05T06:26:29.551Z,70
2018-06-05T06:27:38.718Z,70
2018-06-05T06:28:47.593Z,70
2018-06-05T06:29:56.267Z,70
2018-06-05T06:31:04.918Z,70
2018-06-05T06:32:13.567Z,70
2018-06-05T06:33:22.213Z,75
2018-06-05T06:34:31.502Z,75
2018-06-05T06:35:40.418Z,75
2018-06-05T06:36:49.056Z,75
2018-06-05T06:37:57.714Z,75
2018-06-05T06:39:06.359Z,75
2018-06-05T06:40:15.015Z,75
2018-06-05T06:41:23.649Z,80
2018-06-05T06:42:32.656Z,80
2018-06-05T06:43:41.335Z,75
2018-06-05T06:44:49.982Z,75
2018-06-05T06:45:58.625Z,75
2018-06-05T06:47:07.274Z,75
2018-06-05T06:48:15.926Z,75
2018-06-05T06:49:24.575Z,75
2018-06-05T06:50:33.483Z,80
2018-06-05T06:51:42.126Z,80
2018-06-05T06:52:51.043Z,80
2018-06-05T06:53:59.687Z,80
2018-06-05T06:55:08.347Z,80
2018-06-05T06:56:16.988Z,80
2018-06-05T06:57:25.645Z,80
2018-06-05T06:58:34.584Z,80
2018-06-05T06:59:43.236Z,85
2018-06-05T07:00:51.871Z,85
2018-06-05T07:02:00.522Z,85
2018-06-05T07:03:09.170Z,85
2018-06-05T07:04:17.824Z,85
2018-06-05T07:05:26.477Z,85
2018-06-05T07:06:35.120Z,85
2018-06-05T07:07:44.028Z,85
2018-06-05T07:08:52.672Z,90
2018-06-05T07:10:01.329Z,90
2018-06-05T07:11:09.978Z,95
2018-06-05T07:12:18.648Z,105
2018-06-05T07:13:27.269Z,115
2018-06-05T07:14:35.925Z,120
2018-06-05T07:15:44.829Z,120
2018-06-05T07:16:53.484Z,120
2018-06-05T07:18:02.122Z,115
2018-06-05T07:19:11.046Z,115
2018-06-05T07:20:19.693Z,110
2018-06-05T07:21:28.340Z,110
2018-06-05T07:22:36.983Z,105
2018-06-05T07:23:45.634Z,105
2018-06-05T07:24:54.284Z,105
2018-06-05T07:26:02.936Z,110
2018-06-05T07:27:11.593Z,110
2018-06-05T07:28:20.234Z,115
2018-06-05T07:29:28.886Z,120
2018-06-05T07:30:37.788Z,120
2018-06-05T07:31:46.717Z,120
2018-06-05T07:32:55.356Z,120
2018-06-05T07:34:04.009Z,120
2018-06-05T07:35:12.656Z,115
2018-06-05T07:36:21.306Z,115
2018-06-05T07:37:30.219Z,115
2018-06-05T07:38:38.872Z,115
2018-06-05T07:39:47.519Z,110
2018-06-05T07:40:56.172Z,110
2018-06-05T07:42:04.815Z,110
2018-06-05T07:43:13.727Z,110
2018-06-05T07:44:22.388Z,105
2018-06-05T07:45:31.304Z,105
2018-06-05T07:46:40.225Z,110
2018-06-05T07:47:48.872Z,110
2018-06-05T07:48:57.782Z,110
2018-06-05T07:50:06.427Z,115
2018-06-05T07:51:15.755Z,120
2018-06-05T07:52:24.401Z,125
2018-06-05T07:53:33.050Z,130
2018-06-05T07:54:42.252Z,130
2018-06-05T07:55:50.911Z,130
2018-06-05T07:56:59.555Z,125
2018-06-05T07:58:08.205Z,125
2018-06-05T07:59:16.846Z,125
2018-06-05T08:00:25.493Z,125
2018-06-05T08:01:34.404Z,120
2018-06-05T08:02:43.054Z,120
2018-06-05T08:03:51.705Z,120
2018-06-05T08:05:00.349Z,115
2018-06-05T08:06:08.999Z,115
2018-06-05T08:07:17.915Z,115
2018-06-05T08:08:26.566Z,115
2018-06-05T08:09:35.210Z,110
2018-06-05T08:10:43.856Z,110
2018-06-05T08:11:52.569Z,110
2018-06-05T08:13:01.152Z,115
2018-06-05T08:14:09.795Z,115
2018-06-05T08:15:18.444Z,120
2018-06-05T08:16:27.094Z,120
2018-06-05T08:17:36.006Z,120
2018-06-05T08:18:44.914Z,120
2018-06-05T08:19:53.561Z,125
2018-06-05T08:21:02.203Z,125
2018-06-05T08:22:10.849Z,125
2018-06-05T08:23:19.510Z,130
2018-06-05T08:24:28.455Z,125
2018-06-05T08:25:37.083Z,125
2018-06-05T08:26:45.728Z,130
2018-06-05T08:27:54.379Z,130
2018-06-05T08:29:03.037Z,130
2018-06-05T08:30:11.946Z,130
2018-06-05T08:31:21.382Z,130
2018-06-05T08:32:30.199Z,135
2018-06-05T08:33:38.949Z,135
2018-06-05T08:34:47.601Z,135
2018-06-05T08:35:56.240Z,135
2018-06-05T08:37:04.891Z,135
2018-06-05T08:38:13.542Z,135
2018-06-05T08:39:22.191Z,135
2018-06-05T08:40:31.113Z,135
2018-06-05T08:41:39.764Z,130
2018-06-05T08:42:48.671Z,130
2018-06-05T08:43:57.319Z,130
2018-06-05T08:45:05.984Z,130
2018-06-05T08:46:14.623Z,125
2018-06-05T08:47:23.269Z,130
2018-06-05T08:48:31.925Z,130
2018-06-05T08:49:40.578Z,130
2018-06-05T08:50:49.226Z,135
2018-06-05T08:51:57.876Z,135
2018-06-05T08:53:06.788Z,140
2018-06-05T08:54:15.473Z,135
2018-06-05T08:55:24.439Z,135
2018-06-05T08:56:33.084Z,135
2018-06-05T08:57:41.731Z,135
2018-06-05T08:58:50.378Z,130
2018-06-05T08:59:59.086Z,125
2018-06-05T09:01:07.688Z,125
2018-06-05T09:02:16.335Z,125
2018-06-05T09:03:24.979Z,125
2018-06-05T09:04:33.929Z,125
2018-06-05T09:05:42.619Z,125
2018-06-05T09:06:51.269Z,125
2018-06-05T09:07:59.914Z,125
2018-06-05T09:09:08.825Z,125
2018-06-05T09:10:17.471Z,125
2018-06-05T09:11:26.124Z,125
2018-06-05T09:12:35.031Z,135
2018-06-05T09:13:43.679Z,135
2018-06-05T09:14:52.327Z,145
2018-06-05T09:16:00.978Z,155
2018-06-05T09:17:09.628Z,165
2018-06-05T09:18:18.273Z,170
2018-06-05T09:19:26.921Z,180
2018-06-05T09:20:36.108Z,185
2018-06-05T09:21:45.289Z,195
2018-06-05T09:22:53.931Z,205
2018-06-05T09:24:02.579Z,205
2018-06-05T09:25:11.489Z,205
2018-06-05T09:26:20.141Z,200
2018-06-05T09:27:28.787Z,200
2018-06-05T09:28:37.439Z,200
2018-06-05T09:29:46.081Z,210
2018-06-05T09:30:54.739Z,200
2018-06-05T09:32:03.657Z,195
2018-06-05T09:33:12.302Z,185
2018-06-05T09:34:21.298Z,180
2018-06-05T09:35:29.890Z,175
2018-06-05T09:36:38.548Z,175
2018-06-05T09:37:47.191Z,175
2018-06-05T09:38:55.846Z,180
2018-06-05T09:40:04.485Z,185
2018-06-05T09:41:13.143Z,195
2018-06-05T09:42:22.046Z,195
2018-06-05T09:43:30.700Z,195
2018-06-05T09:44:39.341Z,195
2018-06-05T09:45:47.997Z,190
2018-06-05T09:46:56.714Z,190
2018-06-05T09:48:05.601Z,185
2018-06-05T09:49:14.241Z,180
2018-06-05T09:50:22.890Z,180
2018-06-05T09:51:31.544Z,180
2018-06-05T09:52:40.193Z,175
2018-06-05T09:53:48.848Z,170
2018-06-05T09:54:57.488Z,170
2018-06-05T09:56:06.141Z,170
2018-06-05T09:57:14.787Z,175
2018-06-05T09:58:23.631Z,180
2018-06-05T09:59:32.082Z,190
2018-06-05T10:00:40.753Z,200
2018-06-05T10:01:49.396Z,205
2018-06-05T10:02:58.056Z,210
2018-06-05T10:04:06.702Z,210
2018-06-05T10:05:15.349Z,210
2018-06-05T10:06:23.997Z,205
2018-06-05T10:07:32.655Z,200
2018-06-05T10:08:41.301Z,195
2018-06-05T10:09:50.139Z,190
2018-06-05T10:10:58.866Z,185
2018-06-05T10:12:07.512Z,185
2018-06-05T10:13:16.176Z,180
2018-06-05T10:14:24.819Z,180
2018-06-05T10:15:33.468Z,180
2018-06-05T10:16:42.113Z,180
2018-06-05T10:17:50.771Z,175
2018-06-05T10:18:59.413Z,180
2018-06-05T10:20:08.068Z,180
2018-06-05T10:21:16.713Z,185
2018-06-05T10:22:25.638Z,185
2018-06-05T10:23:34.285Z,185
2018-06-05T10:24:42.936Z,190
2018-06-05T10:25:51.851Z,195
2018-06-05T10:27:00.501Z,200
2018-06-05T10:28:09.155Z,205
2018-06-05T10:29:17.797Z,210
2018-06-05T10:30:26.446Z,210
2018-06-05T10:31:35.366Z,215
2018-06-05T10:32:44.010Z,220
2018-06-05T10:33:52.677Z,225
2018-06-05T10:35:01.322Z,230
2018-06-05T10:36:09.978Z,240
2018-06-05T10:37:18.627Z,245
2018-06-05T10:38:27.278Z,255
2018-06-05T10:39:35.920Z,265
2018-06-05T10:40:44.847Z,280
2018-06-05T10:41:53.497Z,305
2018-06-05T10:43:02.144Z,315
2018-06-05T10:44:11.051Z,325
2018-06-05T10:45:19.703Z,335
2018-06-05T10:46:28.643Z,335
2018-06-05T10:47:37.573Z,335
2018-06-05T10:48:46.224Z,335
2018-06-05T10:49:54.865Z,330
2018-06-05T10:51:03.521Z,325
2018-06-05T10:52:12.166Z,315
2018-06-05T10:53:21.088Z,305
2018-06-05T10:54:29.729Z,310
2018-06-05T10:55:38.387Z,305
2018-06-05T10:56:47.031Z,300
2018-06-05T10:57:55.695Z,300
2018-06-05T10:59:04.336Z,295
2018-06-05T11:00:12.990Z,295
2018-06-05T11:01:21.639Z,290
2018-06-05T11:02:30.557Z,285
2018-06-05T11:03:39.207Z,280
2018-06-05T11:04:47.853Z,280
2018-06-05T11:05:56.501Z,280
2018-06-05T11:07:05.150Z,280
2018-06-05T11:08:13.808Z,290
2018-06-05T11:09:22.453Z,290
2018-06-05T11:10:31.109Z,285
2018-06-05T11:11:40.017Z,285
2018-06-05T11:12:48.694Z,275
2018-06-05T11:13:57.592Z,270
2018-06-05T11:15:06.243Z,265
2018-06-05T11:16:14.884Z,265
2018-06-05T11:17:23.809Z,270
2018-06-05T11:18:32.458Z,275
2018-06-05T11:19:41.373Z,275
2018-06-05T11:20:50.021Z,265
2018-06-05T11:21:58.940Z,260
2018-06-05T11:23:07.596Z,245
2018-06-05T11:24:16.248Z,235
2018-06-05T11:25:24.900Z,220
2018-06-05T11:26:33.542Z,230
2018-06-05T11:27:42.193Z,225
2018-06-05T11:28:50.843Z,240
2018-06-05T11:29:59.785Z,250
2018-06-05T11:31:08.688Z,260
2018-06-05T11:32:17.604Z,265
2018-06-05T11:33:26.254Z,270
2018-06-05T11:34:35.172Z,275
2018-06-05T11:35:43.818Z,280
2018-06-05T11:36:52.531Z,290
2018-06-05T11:38:01.119Z,295
2018-06-05T11:39:09.776Z,300
2018-06-05T11:40:18.427Z,300
2018-06-05T11:41:27.078Z,300
2018-06-05T11:42:35.726Z,300
2018-06-05T11:43:44.634Z,305
2018-06-05T11:44:53.290Z,305
2018-06-05T11:46:01.941Z,310
2018-06-05T11:47:10.597Z,310
2018-06-05T11:48:19.252Z,310
2018-06-05T11:49:27.909Z,310
2018-06-05T11:50:36.555Z,315
2018-06-05T11:51:45.205Z,315
2018-06-05T11:52:53.850Z,315
2018-06-05T11:54:02.575Z,315
2018-06-05T11:55:11.157Z,315
2018-06-05T11:56:19.808Z,320
2018-06-05T11:57:28.459Z,325
2018-06-05T11:58:37.118Z,340
2018-06-05T11:59:46.031Z,350
2018-06-05T12:00:54.731Z,360
2018-06-05T12:02:03.339Z,365
2018-06-05T12:03:11.984Z,370
2018-06-05T12:04:20.635Z,375
2018-06-05T12:05:29.288Z,375
2018-06-05T12:06:37.945Z,375
2018-06-05T12:07:46.850Z,370
2018-06-05T12:08:55.501Z,365
2018-06-05T12:10:04.153Z,355
2018-06-05T12:11:12.895Z,340
2018-06-05T12:12:21.818Z,330
2018-06-05T12:13:30.539Z,320
2018-06-05T12:14:39.188Z,315
2018-06-05T12:15:47.991Z,310
2018-06-05T12:16:56.642Z,300
2018-06-05T12:18:05.292Z,300
2018-06-05T12:19:13.942Z,300
2018-06-05T12:20:22.857Z,305
2018-06-05T12:21:31.509Z,305
2018-06-05T12:22:40.166Z,305
2018-06-05T12:23:48.818Z,310
2018-06-05T12:24:57.465Z,315
2018-06-05T12:26:06.390Z,325
2018-06-05T12:27:15.035Z,330
2018-06-05T12:28:23.694Z,335
2018-06-05T12:29:32.458Z,340
2018-06-05T12:30:41.119Z,340
2018-06-05T12:31:49.769Z,345
2018-06-05T12:32:58.420Z,350
2018-06-05T12:34:07.327Z,355
2018-06-05T12:35:15.981Z,355
2018-06-05T12:36:24.903Z,355
2018-06-05T12:37:33.554Z,350
2018-06-05T12:38:42.206Z,350
2018-06-05T12:39:50.851Z,345
2018-06-05T12:40:59.796Z,345
2018-06-05T12:42:08.443Z,345
2018-06-05T12:43:17.097Z,350
2018-06-05T12:44:25.744Z,360
2018-06-05T12:45:34.663Z,360
2018-06-05T12:46:43.309Z,355
2018-06-05T12:47:51.966Z,345
2018-06-05T12:49:00.868Z,340
2018-06-05T12:50:09.525Z,340
2018-06-05T12:51:18.173Z,345
2018-06-05T12:52:26.833Z,340
2018-06-05T12:53:35.482Z,340
2018-06-05T12:54:44.128Z,335
2018-06-05T12:55:53.049Z,330
2018-06-05T12:57:01.687Z,320
2018-06-05T12:58:10.350Z,310
2018-06-05T12:59:19.263Z,305
2018-06-05T13:00:27.918Z,300
2018-06-05T13:01:36.559Z,300
2018-06-05T13:02:45.218Z,305
2018-06-05T13:03:54.134Z,310
2018-06-05T13:05:03.058Z,315
2018-06-05T13:06:11.698Z,325
2018-06-05T13:07:20.630Z,330
2018-06-05T13:08:29.280Z,340
2018-06-05T13:09:37.932Z,345
2018-06-05T13:10:46.574Z,345
2018-06-05T13:11:55.236Z,350
2018-06-05T13:13:03.885Z,345
2018-06-05T13:14:12.544Z,350
2018-06-05T13:15:21.196Z,350
2018-06-05T13:16:29.837Z,350
2018-06-05T13:17:38.537Z,350
2018-06-05T13:18:47.140Z,350
2018-06-05T13:19:55.798Z,350
2018-06-05T13:21:04.442Z,355
2018-06-05T13:22:13.094Z,350
2018-06-05T13:23:21.741Z,350
2018-06-05T13:24:30.397Z,350
2018-06-05T13:25:39.309Z,350
2018-06-05T13:26:47.964Z,350
2018-06-05T13:27:56.887Z,350
2018-06-05T13:29:05.541Z,345
2018-06-05T13:30:14.193Z,335
2018-06-05T13:31:22.843Z,340
2018-06-05T13:32:31.493Z,325
2018-06-05T13:33:40.145Z,325
2018-06-05T13:34:49.077Z,320
2018-06-05T13:35:57.728Z,330
2018-06-05T13:37:06.644Z,325
2018-06-05T13:38:15.290Z,330
2018-06-05T13:39:23.944Z,335
2018-06-05T13:40:32.597Z,330
2018-06-05T13:41:41.264Z,320
2018-06-05T13:42:50.162Z,320
2018-06-05T13:43:59.201Z,320
2018-06-05T13:45:08.135Z,315
2018-06-05T13:46:17.060Z,315
2018-06-05T13:47:25.706Z,315
2018-06-05T13:48:34.635Z,320
2018-06-05T13:49:43.288Z,325
2018-06-05T13:50:51.943Z,325
2018-06-05T13:52:00.598Z,325
2018-06-05T13:53:09.243Z,325
2018-06-05T13:54:17.899Z,325
2018-06-05T13:55:26.815Z,325
2018-06-05T13:56:35.743Z,325
2018-06-05T13:57:44.658Z,330
2018-06-05T13:58:53.576Z,360
2018-06-05T14:00:02.230Z,340
2018-06-05T14:01:10.885Z,345
2018-06-05T14:02:19.533Z,325
2018-06-05T14:03:28.185Z,305
2018-06-05T14:04:36.834Z,265
2018-06-05T14:05:45.492Z,230
2018-06-05T14:06:54.139Z,195
2018-06-05T14:08:02.792Z,175
2018-06-05T14:09:11.744Z,210
2018-06-05T14:10:20.382Z,240
2018-06-05T14:11:29.040Z,235
2018-06-05T14:12:37.964Z,230
2018-06-05T14:13:46.618Z,230
2018-06-05T14:14:55.274Z,225
2018-06-05T14:16:03.929Z,220
2018-06-05T14:17:12.579Z,215
2018-06-05T14:18:21.232Z,215
2018-06-05T14:19:29.878Z,165
2018-06-05T14:20:38.796Z,160
2018-06-05T14:21:47.710Z,215
2018-06-05T14:22:56.363Z,220
2018-06-05T14:24:05.020Z,215
2018-06-05T14:25:13.670Z,210
2018-06-05T14:26:22.323Z,210
2018-06-05T14:27:30.972Z,215
2018-06-05T14:28:39.623Z,225
2018-06-05T14:29:48.278Z,230
2018-06-05T14:30:57.194Z,255
2018-06-05T14:32:05.853Z,255
2018-06-05T14:33:14.760Z,235
2018-06-05T14:34:23.433Z,230
2018-06-05T14:35:32.190Z,275
2018-06-05T14:36:40.733Z,240
2018-06-05T14:37:49.380Z,240
2018-06-05T14:38:58.050Z,215
2018-06-05T14:40:06.706Z,220
2018-06-05T14:41:15.354Z,225
2018-06-05T14:42:24.001Z,230
2018-06-05T14:43:32.655Z,230
2018-06-05T14:44:41.304Z,235
2018-06-05T14:45:49.970Z,210
2018-06-05T14:46:58.613Z,190
2018-06-05T14:48:07.261Z,165
2018-06-05T14:49:15.912Z,190
2018-06-05T14:50:24.563Z,180
2018-06-05T14:51:33.222Z,195
2018-06-05T14:52:41.873Z,150
2018-06-05T14:53:50.521Z,185
2018-06-05T14:54:59.172Z,155
2018-06-05T14:56:07.828Z,175
2018-06-05T14:57:16.476Z,185
2018-06-05T14:58:25.129Z,185
2018-06-05T14:59:33.777Z,180
2018-06-05T15:00:42.433Z,175
2018-06-05T15:01:51.084Z,175
2018-06-05T15:02:59.736Z,180
2018-06-05T15:04:08.385Z,175
2018-06-05T15:05:17.034Z,180
2018-06-05T15:06:25.955Z,175
2018-06-05T15:07:34.873Z,180
2018-06-05T15:08:43.523Z,175
2018-06-05T15:09:52.464Z,175
2018-06-05T15:11:01.120Z,175
2018-06-05T15:12:10.033Z,175
2018-06-05T15:13:18.685Z,170
2018-06-05T15:14:27.332Z,170
2018-06-05T15:15:35.990Z,175
2018-06-05T15:16:44.637Z,170
2018-06-05T15:17:53.295Z,170
2018-06-05T15:19:01.941Z,170
2018-06-05T15:20:10.599Z,170
2018-06-05T15:21:19.250Z,170
2018-06-05T15:22:27.906Z,170
2018-06-05T15:23:36.561Z,170
2018-06-05T15:24:45.204Z,170
2018-06-05T15:25:53.862Z,170
2018-06-05T15:27:02.509Z,170
2018-06-05T15:28:11.170Z,175
2018-06-05T15:29:19.816Z,170
2018-06-05T15:30:28.476Z,170
2018-06-05T15:31:37.118Z,170
2018-06-05T15:32:46.050Z,165
2018-06-05T15:33:55.073Z,170
2018-06-05T15:35:03.688Z,170
2018-06-05T15:36:12.611Z,170
2018-06-05T15:37:21.538Z,170
2018-06-05T15:38:30.188Z,170
2018-06-05T15:39:38.837Z,170
2018-06-05T15:40:47.483Z,165
2018-06-05T15:41:56.133Z,165
2018-06-05T15:43:04.792Z,165
2018-06-05T15:44:13.438Z,165
2018-06-05T15:45:22.091Z,165
2018-06-05T15:46:30.733Z,170
2018-06-05T15:47:39.393Z,165
2018-06-05T15:48:48.041Z,165
2018-06-05T15:49:56.696Z,165
2018-06-05T15:51:05.339Z,165
2018-06-05T15:52:14.000Z,165
2018-06-05T15:53:22.914Z,165
2018-06-05T15:54:31.571Z,165
2018-06-05T15:55:40.213Z,160
2018-06-05T15:56:49.132Z,160
2018-06-05T15:57:57.843Z,160
2018-06-05T15:59:06.441Z,160
2018-06-05T16:00:15.094Z,155
2018-06-05T16:01:24.009Z,155
2018-06-05T16:02:32.932Z,155
2018-06-05T16:03:41.579Z,155
2018-06-05T16:04:50.243Z,150
2018-06-05T16:05:59.144Z,150
2018-06-05T16:07:07.798Z,150
2018-06-05T16:08:16.444Z,150
2018-06-05T16:09:25.379Z,150